Time;durP1;ratioP1;P1;durP2;ratioP2;P2;SDS_P1;SDS_P2;PMS_P1;PMS_P2;Temp;Humidity;BMP_temperature;BMP_pressure;BME280_temperature;BME280_humidity;BME280_pressure;Samples;Min_cycle;Max_cycle;Signal;HPM_P1;HPM_P2
2022/03/25 00:01:26;;;;;;;5.90;5.50;;;18.60;38.90;;;;;;5036284;28;20502;-56
2022/03/25 00:03:52;;;;;;;7.83;5.67;;;18.60;39.70;;;;;;5038428;28;20223;-57
2022/03/25 00:06:18;;;;;;;9.87;6.10;;;18.60;38.90;;;;;;5038959;28;20219;-56
2022/03/25 00:08:43;;;;;;;6.03;5.63;;;18.60;38.90;;;;;;5039951;28;20223;-56
2022/03/25 00:11:09;;;;;;;5.53;5.10;;;18.60;38.90;;;;;;5037191;28;20250;-56
2022/03/25 00:13:35;;;;;;;5.80;5.40;;;18.60;38.90;;;;;;5039914;28;20226;-56
2022/03/25 00:16:03;;;;;;;5.20;4.90;;;18.60;38.90;;;;;;5040044;28;20467;-56
2022/03/25 00:18:29;;;;;;;6.60;6.10;;;18.60;38.90;;;;;;5037931;28;20222;-56
2022/03/25 00:20:55;;;;;;;6.17;5.77;;;18.60;38.90;;;;;;5039302;28;20810;-56
2022/03/25 00:23:21;;;;;;;5.40;5.07;;;18.60;38.90;;;;;;5037894;28;20226;-56
2022/03/25 00:25:47;;;;;;;6.20;5.80;;;18.60;38.80;;;;;;5035923;28;20822;-56
2022/03/25 00:28:12;;;;;;;5.77;5.40;;;18.60;38.90;;;;;;5038088;28;20229;-56
2022/03/25 00:30:38;;;;;;;5.87;5.47;;;18.60;39.00;;;;;;5037268;28;20292;-56
2022/03/25 00:33:04;;;;;;;5.50;5.10;;;18.60;38.90;;;;;;5041770;28;20218;-55
2022/03/25 00:35:31;;;;;;;5.70;5.30;;;18.60;38.90;;;;;;5038919;28;20769;-57
2022/03/25 00:37:58;;;;;;;5.50;5.10;;;18.60;38.90;;;;;;5038657;28;20479;-57
2022/03/25 00:40:24;;;;;;;5.70;5.30;;;18.60;38.90;;;;;;5038138;28;20852;-56
2022/03/25 00:42:50;;;;;;;5.20;4.90;;;18.60;38.90;;;;;;5039260;28;20521;-56
2022/03/25 00:45:16;;;;;;;5.80;5.40;;;18.60;38.90;;;;;;5036028;28;20513;-57
2022/03/25 00:47:42;;;;;;;6.03;5.60;;;18.60;38.80;;;;;;5041795;28;20234;-56
2022/03/25 00:50:08;;;;;;;6.20;5.80;;;18.60;38.80;;;;;;5035374;28;20261;-57
2022/03/25 00:52:34;;;;;;;5.20;4.90;;;18.60;38.90;;;;;;5039614;28;20460;-56
2022/03/25 00:55:00;;;;;;;5.80;5.40;;;18.60;38.80;;;;;;5035235;28;20423;-56
2022/03/25 00:57:27;;;;;;;5.90;5.50;;;18.60;38.80;;;;;;5033873;28;20230;-57
2022/03/25 00:59:53;;;;;;;4.93;4.63;;;18.60;38.80;;;;;;5036857;28;20418;-55
2022/03/25 01:02:18;;;;;;;6.30;5.83;;;18.60;38.80;;;;;;5037161;28;20426;-56
2022/03/25 01:04:44;;;;;;;8.03;5.93;;;18.60;38.80;;;;;;5042354;28;20299;-56
2022/03/25 01:07:10;;;;;;;5.40;5.00;;;18.60;38.80;;;;;;5034163;28;20223;-56
2022/03/25 01:09:36;;;;;;;6.27;5.77;;;18.60;38.80;;;;;;5036700;28;20276;-55
2022/03/25 01:12:02;;;;;;;6.03;5.63;;;18.60;38.80;;;;;;5033793;28;20318;-57
2022/03/25 01:14:27;;;;;;;5.67;5.27;;;18.60;38.80;;;;;;5037861;28;20926;-57
2022/03/25 01:16:53;;;;;;;5.80;5.40;;;18.60;38.80;;;;;;5037097;28;20441;-55
2022/03/25 01:19:20;;;;;;;5.53;5.23;;;18.60;38.80;;;;;;5034776;28;20219;-56
2022/03/25 01:21:47;;;;;;;5.73;5.30;;;18.60;38.80;;;;;;5039395;28;20214;-56
2022/03/25 01:24:13;;;;;;;6.40;5.90;;;18.60;39.60;;;;;;5032181;28;20458;-55
2022/03/25 01:26:39;;;;;;;5.90;5.60;;;18.60;38.80;;;;;;5036807;28;20767;-56
2022/03/25 01:29:05;;;;;;;5.63;5.23;;;18.60;38.80;;;;;;5035302;28;20511;-55
2022/03/25 01:31:32;;;;;;;5.60;5.23;;;18.60;38.80;;;;;;5037402;28;20460;-57
2022/03/25 01:33:58;;;;;;;5.77;5.40;;;18.60;38.80;;;;;;5037822;28;20227;-57
2022/03/25 01:36:24;;;;;;;5.60;5.23;;;18.60;38.80;;;;;;5040304;28;20532;-55
2022/03/25 01:38:49;;;;;;;4.97;4.67;;;18.60;38.80;;;;;;5040610;28;20531;-56
2022/03/25 01:41:19;;;;;;;6.33;5.83;;;18.60;38.80;;;;;;5043460;28;20247;-56
2022/03/25 01:43:53;;;;;;;5.20;4.80;;;18.60;38.80;;;;;;5038460;28;20719;-56
2022/03/25 01:46:19;;;;;;;5.87;5.30;;;18.60;38.90;;;;;;5039699;28;20426;-56
2022/03/25 01:48:44;;;;;;;5.80;5.40;;;18.50;38.80;;;;;;5039512;28;20866;-56
2022/03/25 01:51:10;;;;;;;5.47;5.10;;;18.60;38.80;;;;;;5036989;28;20234;-56
2022/03/25 01:53:37;;;;;;;5.20;4.87;;;18.50;38.70;;;;;;5039477;28;20306;-57
2022/03/25 01:56:05;;;;;;;5.63;5.33;;;18.50;38.70;;;;;;5036633;28;20581;-56
2022/03/25 01:58:32;;;;;;;7.03;6.30;;;18.50;38.70;;;;;;5044108;28;20848;-57
2022/03/25 02:00:59;;;;;;;5.70;5.20;;;18.50;38.70;;;;;;5062888;23;20461;-79
2022/03/25 02:03:26;;;;;;;5.57;5.17;;;18.50;38.70;;;;;;5040718;28;20446;-79
2022/03/25 02:05:51;;;;;;;5.83;5.43;;;18.50;38.80;;;;;;5043846;28;20792;-79
2022/03/25 02:10:45;;;;;;;5.80;5.50;;;18.50;38.80;;;;;;4983286;28;20445;-58
2022/03/25 02:13:12;;;;;;;5.77;5.37;;;18.50;38.70;;;;;;5011236;28;20432;-56
2022/03/25 02:15:43;;;;;;;6.57;6.17;;;18.50;38.80;;;;;;5010922;28;20246;-55
2022/03/25 02:18:11;;;;;;;5.50;5.17;;;18.50;38.70;;;;;;5005997;28;20409;-56
2022/03/25 02:20:38;;;;;;;5.53;5.17;;;18.50;38.80;;;;;;5010252;28;20449;-56
2022/03/25 02:23:05;;;;;;;5.13;4.83;;;18.50;38.80;;;;;;5008790;28;20452;-57
2022/03/25 02:25:31;;;;;;;5.73;5.20;;;18.50;38.80;;;;;;5011765;28;20428;-56
2022/03/25 02:28:01;;;;;;;6.30;5.90;;;18.50;38.80;;;;;;5008424;28;20449;-56
2022/03/25 02:30:28;;;;;;;5.83;5.43;;;18.50;38.80;;;;;;5009630;28;20282;-56
2022/03/25 02:33:04;;;;;;;6.13;5.70;;;18.50;38.70;;;;;;5009510;28;20479;-55
2022/03/25 02:35:36;;;;;;;6.10;5.60;;;18.50;38.80;;;;;;5008731;28;20432;-57
2022/03/25 02:38:02;;;;;;;5.60;5.30;;;18.50;38.70;;;;;;4991895;28;20835;-56
2022/03/25 02:40:28;;;;;;;6.87;6.30;;;18.50;38.70;;;;;;5011002;28;20416;-57
2022/03/25 02:42:53;;;;;;;5.50;5.00;;;18.50;38.80;;;;;;5010728;28;20460;-55
2022/03/25 02:45:20;;;;;;;6.40;5.80;;;18.50;38.80;;;;;;5009614;28;20253;-56
2022/03/25 02:47:46;;;;;;;5.33;5.03;;;18.50;38.80;;;;;;5009161;28;20251;-57
2022/03/25 02:50:12;;;;;;;5.90;5.50;;;18.50;38.80;;;;;;5009926;28;20435;-56
2022/03/25 02:52:37;;;;;;;6.03;5.43;;;18.50;38.80;;;;;;5010133;28;20529;-56
2022/03/25 02:55:03;;;;;;;6.23;5.73;;;18.50;38.70;;;;;;5010502;28;20644;-55
2022/03/25 02:57:29;;;;;;;6.13;5.70;;;18.50;38.80;;;;;;5009743;28;20310;-56
2022/03/25 02:59:55;;;;;;;6.27;5.67;;;18.50;38.70;;;;;;4991763;28;20435;-57
2022/03/25 03:02:20;;;;;;;6.07;5.67;;;18.50;38.80;;;;;;4991375;28;20231;-57
2022/03/25 03:04:46;;;;;;;5.40;5.10;;;18.50;38.80;;;;;;5009421;28;20215;-57
2022/03/25 03:07:12;;;;;;;6.20;5.80;;;18.50;38.80;;;;;;5009630;28;20306;-56
2022/03/25 03:09:37;;;;;;;5.67;5.33;;;18.50;38.80;;;;;;5008847;28;20231;-56
2022/03/25 03:12:03;;;;;;;6.10;5.60;;;18.50;38.80;;;;;;5009984;28;20220;-55
2022/03/25 03:14:29;;;;;;;5.53;5.13;;;18.50;38.80;;;;;;5003552;28;20790;-56
2022/03/25 03:16:54;;;;;;;5.80;5.33;;;18.50;38.80;;;;;;5009792;28;20440;-55
2022/03/25 03:19:20;;;;;;;6.00;5.57;;;18.50;38.80;;;;;;5007749;28;20227;-56
2022/03/25 03:21:46;;;;;;;5.50;5.10;;;18.50;38.80;;;;;;5008409;28;20685;-58
2022/03/25 03:24:11;;;;;;;5.70;5.30;;;18.50;38.80;;;;;;5009956;28;20242;-56
2022/03/25 03:26:37;;;;;;;5.90;5.50;;;18.50;38.80;;;;;;5009205;28;20226;-56
2022/03/25 03:29:05;;;;;;;5.00;4.80;;;18.50;38.80;;;;;;5010579;28;20755;-56
2022/03/25 03:31:31;;;;;;;5.20;4.87;;;18.50;38.80;;;;;;5008053;28;20578;-56
2022/03/25 03:33:56;;;;;;;5.90;5.50;;;18.50;38.70;;;;;;5010279;28;20489;-56
2022/03/25 03:36:22;;;;;;;5.43;5.03;;;18.50;38.80;;;;;;5008679;28;20223;-55
2022/03/25 03:38:48;;;;;;;6.00;5.60;;;18.50;38.70;;;;;;5009156;28;20250;-56
2022/03/25 03:41:14;;;;;;;5.70;5.30;;;18.50;38.80;;;;;;5009677;28;20227;-56
2022/03/25 03:43:39;;;;;;;5.57;5.17;;;18.50;38.80;;;;;;5009150;28;20330;-56
2022/03/25 03:46:05;;;;;;;6.03;5.63;;;18.50;38.70;;;;;;5007641;28;20228;-55
2022/03/25 03:48:31;;;;;;;6.23;5.70;;;18.50;38.70;;;;;;5009096;28;20239;-56
2022/03/25 03:50:57;;;;;;;6.23;5.80;;;18.50;38.70;;;;;;5008614;28;20239;-56
2022/03/25 03:53:22;;;;;;;5.40;5.10;;;18.50;38.70;;;;;;5007238;28;20449;-56
2022/03/25 03:55:48;;;;;;;5.60;5.10;;;18.50;38.80;;;;;;5008962;28;20223;-55
2022/03/25 03:58:14;;;;;;;5.73;5.33;;;18.50;38.80;;;;;;5010285;28;20618;-58
2022/03/25 04:00:39;;;;;;;8.67;6.57;;;18.50;38.70;;;;;;5008624;28;20368;-55
2022/03/25 04:03:06;;;;;;;6.00;5.63;;;18.50;38.70;;;;;;4989708;28;20693;-56
2022/03/25 04:05:32;;;;;;;5.90;5.40;;;18.50;38.70;;;;;;4991073;28;20219;-57
2022/03/25 04:07:58;;;;;;;5.77;5.37;;;18.50;38.70;;;;;;4991971;28;21123;-56
2022/03/25 04:10:23;;;;;;;5.90;5.40;;;18.50;38.80;;;;;;5009646;28;20435;-56
2022/03/25 04:12:49;;;;;;;6.63;6.13;;;18.50;38.70;;;;;;5007674;28;20227;-56
2022/03/25 04:15:15;;;;;;;6.00;5.50;;;18.50;38.70;;;;;;5009776;28;20278;-56
2022/03/25 04:17:43;;;;;;;5.90;5.50;;;18.40;38.70;;;;;;5008321;28;20224;-56
2022/03/25 04:20:11;;;;;;;6.40;5.90;;;18.50;38.80;;;;;;4989850;28;20775;-56
2022/03/25 04:22:37;;;;;;;5.00;4.70;;;18.50;38.70;;;;;;5007443;28;20455;-56
2022/03/25 04:25:05;;;;;;;5.20;4.90;;;18.50;38.70;;;;;;5008641;28;20478;-57
2022/03/25 04:27:31;;;;;;;6.07;5.57;;;18.50;38.70;;;;;;5007721;28;20220;-56
2022/03/25 04:29:56;;;;;;;6.93;6.27;;;18.50;38.70;;;;;;5007128;28;20790;-56
2022/03/25 04:32:22;;;;;;;6.57;6.07;;;18.40;38.70;;;;;;5006545;28;20223;-56
2022/03/25 04:34:48;;;;;;;5.80;5.40;;;18.50;38.70;;;;;;5006804;28;20277;-56
2022/03/25 04:37:13;;;;;;;6.37;5.87;;;18.50;38.70;;;;;;5009920;28;20606;-56
2022/03/25 04:39:39;;;;;;;7.10;6.20;;;18.40;38.70;;;;;;5007061;28;20230;-56
2022/03/25 04:42:07;;;;;;;5.73;5.40;;;18.50;38.70;;;;;;5007436;28;20580;-56
2022/03/25 04:44:33;;;;;;;6.63;6.07;;;18.50;38.70;;;;;;5008855;28;20466;-57
2022/03/25 04:46:59;;;;;;;6.70;6.00;;;18.50;38.60;;;;;;5003894;28;20446;-55
2022/03/25 04:49:24;;;;;;;6.13;5.63;;;18.50;38.70;;;;;;5007323;28;20477;-56
2022/03/25 04:51:50;;;;;;;5.93;5.53;;;18.50;38.70;;;;;;5006235;28;20316;-56
2022/03/25 04:54:16;;;;;;;6.13;5.57;;;18.50;38.70;;;;;;5007086;28;20227;-56
2022/03/25 04:56:41;;;;;;;5.97;5.57;;;18.50;38.70;;;;;;5008916;28;20668;-57
2022/03/25 04:59:07;;;;;;;6.23;5.87;;;18.50;38.70;;;;;;5008428;28;20220;-55
2022/03/25 05:01:32;;;;;;;6.27;5.80;;;18.50;38.70;;;;;;5008719;28;20690;-56
2022/03/25 05:03:58;;;;;;;5.80;5.40;;;18.50;38.60;;;;;;5008953;28;20251;-56
2022/03/25 05:06:24;;;;;;;6.30;5.70;;;18.50;38.60;;;;;;5008000;28;20342;-55
2022/03/25 05:08:49;;;;;;;7.10;6.50;;;18.50;38.60;;;;;;5006879;28;20251;-55
2022/03/25 05:11:15;;;;;;;6.37;5.93;;;18.50;38.60;;;;;;5008621;28;20236;-56
2022/03/25 05:13:41;;;;;;;6.40;6.00;;;18.50;38.60;;;;;;5008520;28;20672;-56
2022/03/25 05:16:06;;;;;;;6.17;5.77;;;18.50;38.60;;;;;;5007136;28;20223;-55
2022/03/25 05:18:32;;;;;;;6.50;6.10;;;18.50;38.60;;;;;;5007876;28;20747;-56
2022/03/25 05:20:59;;;;;;;5.20;4.90;;;18.50;38.50;;;;;;5007881;28;20236;-56
2022/03/25 05:23:25;;;;;;;5.90;5.50;;;18.50;38.50;;;;;;5007122;28;20660;-55
2022/03/25 05:25:51;;;;;;;6.30;5.90;;;18.50;38.50;;;;;;5008225;28;20431;-56
2022/03/25 05:28:17;;;;;;;6.70;6.10;;;18.50;38.50;;;;;;5007203;28;20229;-56
2022/03/25 05:30:42;;;;;;;6.53;6.03;;;18.50;38.40;;;;;;5009101;28;20638;-55
2022/03/25 05:33:08;;;;;;;6.20;5.70;;;18.50;38.40;;;;;;5008305;28;20445;-57
2022/03/25 05:35:34;;;;;;;6.47;6.07;;;18.50;38.40;;;;;;5010865;28;20234;-57
2022/03/25 05:37:59;;;;;;;5.40;5.00;;;18.50;38.40;;;;;;5010014;28;20223;-57
2022/03/25 05:40:26;;;;;;;6.20;5.70;;;18.50;38.40;;;;;;5011768;28;20430;-57
2022/03/25 05:42:53;;;;;;;6.40;5.80;;;18.50;38.40;;;;;;4992969;28;20715;-56
2022/03/25 05:45:20;;;;;;;5.97;5.57;;;18.50;38.30;;;;;;5008888;28;20493;-57
2022/03/25 05:47:47;;;;;;;6.20;5.60;;;18.50;38.30;;;;;;4994036;28;20856;-59
2022/03/25 05:50:13;;;;;;;5.50;5.20;;;18.60;38.30;;;;;;5011961;28;20505;-57
2022/03/25 05:52:40;;;;;;;6.73;6.33;;;18.50;38.30;;;;;;5012313;28;20484;-57
2022/03/25 05:55:06;;;;;;;6.70;6.20;;;18.60;38.30;;;;;;5010468;28;20215;-56
2022/03/25 05:57:32;;;;;;;6.87;6.37;;;18.50;38.20;;;;;;5011427;28;20451;-57
2022/03/25 05:59:59;;;;;;;6.90;6.40;;;18.60;38.30;;;;;;5010984;28;20445;-56
2022/03/25 06:02:25;;;;;;;7.63;6.83;;;18.60;38.30;;;;;;5012141;28;20427;-57
2022/03/25 06:04:51;;;;;;;7.43;6.73;;;18.60;38.30;;;;;;5012015;28;20449;-58
2022/03/25 06:07:17;;;;;;;7.37;6.77;;;18.60;38.30;;;;;;5011658;28;20779;-57
2022/03/25 06:09:43;;;;;;;8.07;7.40;;;18.60;38.30;;;;;;5010886;28;20975;-56
2022/03/25 06:12:10;;;;;;;8.73;7.90;;;18.60;38.30;;;;;;5012460;28;20453;-56
2022/03/25 06:14:36;;;;;;;8.70;8.00;;;18.50;38.20;;;;;;5010429;28;20270;-56
2022/03/25 06:17:01;;;;;;;11.00;9.10;;;18.60;38.20;;;;;;5010964;28;20441;-57
2022/03/25 06:19:28;;;;;;;9.23;8.33;;;18.60;38.10;;;;;;4992389;28;20247;-56
2022/03/25 06:21:55;;;;;;;10.70;8.17;;;18.60;38.00;;;;;;5010859;28;20216;-56
2022/03/25 06:24:21;;;;;;;8.47;7.70;;;18.50;38.10;;;;;;5012423;28;20424;-58
2022/03/25 06:26:46;;;;;;;9.70;8.80;;;18.50;37.90;;;;;;5010083;28;20428;-58
2022/03/25 06:29:12;;;;;;;8.97;8.17;;;18.50;37.90;;;;;;5011733;28;20224;-57
2022/03/25 06:31:38;;;;;;;10.30;9.30;;;18.50;37.90;;;;;;5011285;28;20286;-57
2022/03/25 06:34:03;;;;;;;10.03;9.13;;;18.60;38.00;;;;;;5009681;28;20224;-58
2022/03/25 06:36:29;;;;;;;9.10;8.30;;;18.50;37.90;;;;;;5010010;28;20251;-55
2022/03/25 06:38:55;;;;;;;10.07;9.17;;;18.50;37.90;;;;;;5009535;28;20638;-56
2022/03/25 06:41:20;;;;;;;9.10;8.10;;;18.60;38.00;;;;;;5007739;28;20256;-57
2022/03/25 06:43:46;;;;;;;9.63;8.83;;;18.60;38.00;;;;;;5008993;28;20220;-58
2022/03/25 06:46:14;;;;;;;9.07;8.30;;;18.50;37.90;;;;;;5006588;28;20251;-56
2022/03/25 06:48:40;;;;;;;9.37;8.57;;;18.60;38.00;;;;;;5008412;28;20591;-56
2022/03/25 06:51:06;;;;;;;9.10;8.30;;;18.60;38.00;;;;;;5007834;28;20462;-56
2022/03/25 06:53:31;;;;;;;10.27;8.07;;;18.60;38.00;;;;;;4990594;28;20223;-58
2022/03/25 06:55:57;;;;;;;9.23;8.37;;;18.60;38.00;;;;;;5011150;28;20455;-56
2022/03/25 06:58:23;;;;;;;9.67;8.17;;;18.60;38.00;;;;;;4993564;28;20216;-56
2022/03/25 07:00:49;;;;;;;11.33;9.87;;;18.60;38.00;;;;;;5008894;28;20224;-56
2022/03/25 07:03:15;;;;;;;9.67;8.70;;;18.60;38.00;;;;;;5010037;28;20310;-56
2022/03/25 07:05:41;;;;;;;8.60;7.87;;;18.60;38.00;;;;;;5010518;28;20956;-56
2022/03/25 07:08:07;;;;;;;8.53;7.83;;;18.60;38.00;;;;;;5009621;28;20555;-56
2022/03/25 07:10:34;;;;;;;8.87;7.93;;;18.60;38.00;;;;;;5010166;28;20440;-56
2022/03/25 07:13:00;;;;;;;8.63;7.80;;;18.60;38.00;;;;;;5009498;28;20974;-57
2022/03/25 07:15:25;;;;;;;9.73;7.77;;;18.60;38.00;;;;;;5010217;28;20864;-56
2022/03/25 07:17:52;;;;;;;9.47;8.47;;;18.60;38.00;;;;;;5011193;28;20457;-57
2022/03/25 07:20:21;;;;;;;9.77;8.70;;;18.50;37.90;;;;;;5009353;28;20217;-56
2022/03/25 07:22:49;;;;;;;8.70;8.00;;;18.60;38.00;;;;;;5009812;28;20445;-57
2022/03/25 07:25:15;;;;;;;8.40;7.70;;;18.50;38.00;;;;;;5011727;28;20441;-56
2022/03/25 07:27:42;;;;;;;8.30;7.50;;;18.50;37.90;;;;;;5007984;28;20518;-56
2022/03/25 07:30:09;;;;;;;7.97;7.27;;;18.60;38.00;;;;;;5009885;28;20992;-56
2022/03/25 07:32:35;;;;;;;10.47;8.17;;;18.50;37.90;;;;;;5010623;28;20420;-57
2022/03/25 07:35:02;;;;;;;9.23;8.43;;;18.50;37.90;;;;;;5010502;28;20788;-56
2022/03/25 07:37:28;;;;;;;7.60;7.00;;;18.60;38.00;;;;;;5008512;28;20266;-56
2022/03/25 07:39:53;;;;;;;8.20;7.60;;;18.50;37.90;;;;;;5008097;28;20548;-56
2022/03/25 07:42:19;;;;;;;8.93;6.93;;;18.50;37.90;;;;;;5006269;28;20807;-55
2022/03/25 07:44:45;;;;;;;10.40;7.70;;;18.50;37.90;;;;;;5008160;28;20220;-54
2022/03/25 07:47:12;;;;;;;9.30;7.47;;;18.60;38.00;;;;;;5010867;28;20220;-54
2022/03/25 07:49:39;;;;;;;10.50;7.57;;;18.50;37.90;;;;;;5006897;28;20421;-55
2022/03/25 07:52:10;;;;;;;17.97;7.97;;;18.60;38.00;;;;;;5010247;28;20461;-56
2022/03/25 07:54:38;;;;;;;9.73;7.30;;;18.60;38.00;;;;;;5008782;28;20438;-57
2022/03/25 07:57:04;;;;;;;8.53;7.63;;;18.60;38.00;;;;;;5008578;28;20463;-57
2022/03/25 07:59:29;;;;;;;10.90;7.83;;;18.60;38.00;;;;;;4986246;28;20995;-56
2022/03/25 08:01:55;;;;;;;14.07;8.70;;;18.60;38.00;;;;;;5007771;28;20703;-56
2022/03/25 08:04:24;;;;;;;9.20;8.27;;;18.60;38.00;;;;;;5008794;28;20225;-57
2022/03/25 08:06:50;;;;;;;11.57;8.33;;;18.60;38.00;;;;;;5006208;28;20801;-58
2022/03/25 08:09:16;;;;;;;11.53;7.90;;;18.60;38.00;;;;;;5009016;28;20803;-57
2022/03/25 08:11:45;;;;;;;11.43;8.47;;;18.60;38.00;;;;;;5008618;28;20478;-56
2022/03/25 08:14:12;;;;;;;10.03;8.30;;;18.60;38.00;;;;;;5010436;28;20227;-57
2022/03/25 08:16:37;;;;;;;8.70;7.80;;;18.60;38.00;;;;;;5008230;28;20456;-56
2022/03/25 08:19:03;;;;;;;8.63;8.03;;;18.60;38.00;;;;;;5009761;28;20812;-56
2022/03/25 08:21:29;;;;;;;8.17;7.47;;;18.60;38.00;;;;;;5006509;28;20243;-55
2022/03/25 08:29:23;;;;;;;11.17;7.93;;;18.60;38.00;;;;;;5007528;28;20439;-57
2022/03/25 08:31:48;;;;;;;8.87;8.07;;;18.60;38.00;;;;;;5008444;28;20416;-57
2022/03/25 08:34:15;;;;;;;11.07;7.43;;;18.60;38.00;;;;;;5010651;28;20212;-58
2022/03/25 08:36:46;;;;;;;9.27;7.37;;;18.60;38.00;;;;;;5007953;28;20243;-57
2022/03/25 08:39:12;;;;;;;7.60;7.00;;;18.60;38.00;;;;;;5007314;28;20776;-56
2022/03/25 08:41:38;;;;;;;9.43;7.30;;;18.60;38.00;;;;;;5008409;28;20408;-57
2022/03/25 08:44:04;;;;;;;8.23;7.53;;;18.60;38.00;;;;;;5008414;28;20974;-57
2022/03/25 08:46:30;;;;;;;8.47;7.67;;;18.60;38.00;;;;;;5009290;28;20226;-57
2022/03/25 08:48:56;;;;;;;8.47;7.57;;;18.60;38.00;;;;;;5008379;28;20454;-56
2022/03/25 08:51:21;;;;;;;7.90;6.83;;;18.60;38.00;;;;;;4990369;28;20240;-57
2022/03/25 08:53:47;;;;;;;8.33;7.47;;;18.60;38.00;;;;;;5009991;28;20680;-55
2022/03/25 08:56:13;;;;;;;7.60;7.00;;;18.60;38.00;;;;;;5009764;28;20228;-55
2022/03/25 08:58:39;;;;;;;7.83;7.10;;;18.60;38.00;;;;;;5005883;28;20221;-55
2022/03/25 09:01:05;;;;;;;8.50;7.73;;;18.60;38.00;;;;;;5005813;28;20536;-55
2022/03/25 09:03:31;;;;;;;10.27;7.70;;;18.60;38.00;;;;;;5007621;28;20495;-55
2022/03/25 09:05:56;;;;;;;7.93;7.13;;;18.60;38.00;;;;;;5007553;28;20707;-56
2022/03/25 09:08:23;;;;;;;9.07;7.67;;;18.60;38.00;;;;;;5006523;28;20238;-56
2022/03/25 09:10:49;;;;;;;7.50;6.90;;;18.60;38.00;;;;;;5008632;28;20440;-56
2022/03/25 09:13:14;;;;;;;8.10;7.40;;;18.60;38.00;;;;;;5010134;28;20281;-56
2022/03/25 09:15:40;;;;;;;7.13;6.50;;;18.60;38.00;;;;;;5008409;28;20246;-56
2022/03/25 09:18:06;;;;;;;7.57;6.97;;;18.60;38.70;;;;;;5008716;28;20277;-57
2022/03/25 09:20:32;;;;;;;8.13;7.37;;;18.60;38.00;;;;;;5006555;28;20274;-57
2022/03/25 09:22:57;;;;;;;7.60;6.90;;;18.60;38.00;;;;;;5008517;28;20223;-58
2022/03/25 09:25:23;;;;;;;9.20;8.23;;;18.60;38.00;;;;;;5007740;28;20228;-56
2022/03/25 09:27:50;;;;;;;8.00;7.37;;;18.60;38.00;;;;;;5008661;28;20255;-57
2022/03/25 09:30:15;;;;;;;7.90;7.10;;;18.60;38.70;;;;;;5005184;28;20260;-55
2022/03/25 09:32:41;;;;;;;8.43;7.60;;;18.60;38.00;;;;;;5005882;28;20488;-55
2022/03/25 09:35:10;;;;;;;8.40;7.17;;;18.60;38.00;;;;;;5007394;28;20212;-55
2022/03/25 09:37:47;;;;;;;7.43;6.70;;;18.60;38.00;;;;;;5005919;28;20243;-55
2022/03/25 09:40:18;;;;;;;7.73;7.13;;;18.60;38.00;;;;;;5006818;28;20507;-56
2022/03/25 09:42:45;;;;;;;7.30;6.70;;;18.60;38.00;;;;;;5007119;28;20450;-55
2022/03/25 09:45:13;;;;;;;8.80;7.43;;;18.60;38.00;;;;;;5007676;28;20444;-55
2022/03/25 09:47:39;;;;;;;7.30;6.70;;;18.60;38.00;;;;;;5005761;28;20494;-56
2022/03/25 09:50:08;;;;;;;7.60;6.90;;;18.60;38.00;;;;;;5008813;28;20532;-55
2022/03/25 09:52:34;;;;;;;7.40;6.80;;;18.60;38.00;;;;;;5004999;28;20428;-55
2022/03/25 09:55:01;;;;;;;6.67;6.17;;;18.60;38.00;;;;;;5007550;28;20457;-55
2022/03/25 09:57:26;;;;;;;6.73;6.17;;;18.60;38.00;;;;;;5005714;28;20461;-55
2022/03/25 09:59:53;;;;;;;7.70;7.00;;;18.60;38.00;;;;;;5006729;28;20423;-55
2022/03/25 10:02:19;;;;;;;7.50;6.90;;;18.60;38.00;;;;;;5008924;28;20215;-56
2022/03/25 10:04:49;;;;;;;7.27;6.70;;;18.60;38.00;;;;;;5006496;28;20472;-55
2022/03/25 10:07:20;;;;;;;7.47;6.97;;;18.60;38.00;;;;;;5008567;28;20222;-55
2022/03/25 10:09:48;;;;;;;7.23;6.73;;;18.60;38.00;;;;;;5006908;28;20459;-55
2022/03/25 10:12:23;;;;;;;7.13;6.63;;;18.60;38.10;;;;;;5008793;28;20736;-55
2022/03/25 10:14:50;;;;;;;6.93;6.27;;;18.60;38.20;;;;;;5005690;28;20432;-55
2022/03/25 10:17:16;;;;;;;6.50;6.10;;;18.60;38.20;;;;;;5009385;28;20434;-55
2022/03/25 10:19:54;;;;;;;7.10;6.50;;;18.60;38.20;;;;;;5010801;28;20453;-55
2022/03/25 10:22:20;;;;;;;7.60;7.00;;;18.60;38.20;;;;;;5010952;28;20944;-57
2022/03/25 10:24:52;;;;;;;6.70;6.20;;;18.60;38.20;;;;;;5012137;28;20416;-56
2022/03/25 10:27:22;;;;;;;6.13;5.83;;;18.60;38.30;;;;;;5010471;28;20446;-56
2022/03/25 10:29:47;;;;;;;6.67;6.20;;;18.60;38.30;;;;;;5011380;28;20863;-56
2022/03/25 10:32:24;;;;;;;6.10;5.70;;;18.60;38.30;;;;;;5012720;28;20420;-55
2022/03/25 10:35:19;;;;;;;6.40;5.80;;;18.60;38.30;;;;;;5010838;28;20331;-56
2022/03/25 10:37:58;;;;;;;6.30;5.80;;;18.60;38.30;;;;;;4985520;28;20435;-56
2022/03/25 10:40:24;;;;;;;6.83;6.33;;;18.60;38.50;;;;;;5010918;28;20411;-56
2022/03/25 10:43:09;;;;;;;6.93;6.23;;;18.50;38.30;;;;;;5008741;28;20438;-58
2022/03/25 10:45:42;;;;;;;6.33;5.90;;;18.50;38.40;;;;;;5010028;28;20310;-56
2022/03/25 10:48:22;;;;;;;7.07;6.57;;;18.60;38.50;;;;;;5010323;28;20412;-57
2022/03/25 10:50:58;;;;;;;7.30;6.80;;;18.50;38.40;;;;;;5008037;28;20566;-57
2022/03/25 10:53:26;;;;;;;7.73;7.13;;;18.50;38.40;;;;;;5010289;28;20439;-56
2022/03/25 10:56:03;;;;;;;6.23;5.70;;;18.50;38.40;;;;;;5009225;28;20445;-56
2022/03/25 10:58:29;;;;;;;5.67;5.33;;;18.50;38.40;;;;;;5009609;28;20900;-57
2022/03/25 11:00:55;;;;;;;6.13;5.70;;;18.50;38.50;;;;;;5009683;28;20455;-56
2022/03/25 11:03:22;;;;;;;6.27;5.90;;;18.50;38.50;;;;;;5011642;28;20263;-56
2022/03/25 11:05:49;;;;;;;6.20;5.60;;;18.50;38.50;;;;;;5008593;28;20441;-56
2022/03/25 11:08:15;;;;;;;7.27;6.70;;;18.50;38.50;;;;;;5009791;28;20948;-56
2022/03/25 11:10:40;;;;;;;5.57;5.10;;;18.50;38.60;;;;;;5008832;28;20466;-56
2022/03/25 11:13:06;;;;;;;6.00;5.60;;;18.50;38.50;;;;;;5009332;28;20311;-56
2022/03/25 11:15:32;;;;;;;5.83;5.33;;;18.50;38.60;;;;;;5009155;28;20223;-56
2022/03/25 11:17:58;;;;;;;6.07;5.67;;;18.50;38.60;;;;;;5008974;28;20216;-56
2022/03/25 11:20:28;;;;;;;6.13;5.67;;;18.50;38.60;;;;;;5009651;28;20451;-56
2022/03/25 11:23:19;;;;;;;5.90;5.60;;;18.50;38.60;;;;;;5009589;28;20524;-56
2022/03/25 11:25:48;;;;;;;6.57;6.07;;;18.50;38.50;;;;;;5009473;28;20454;-56
2022/03/25 11:28:19;;;;;;;6.77;6.07;;;18.50;38.60;;;;;;5007922;28;20416;-57
2022/03/25 11:30:45;;;;;;;6.53;6.07;;;18.50;38.60;;;;;;5010722;28;20929;-56
2022/03/25 11:33:11;;;;;;;6.03;5.63;;;18.50;39.50;;;;;;5011154;28;21112;-56
2022/03/25 11:35:41;;;;;;;5.47;5.07;;;18.50;38.60;;;;;;5008898;28;21126;-56
2022/03/25 11:38:11;;;;;;;5.80;5.30;;;18.50;38.70;;;;;;5009773;28;20782;-56
2022/03/25 11:40:45;;;;;;;7.90;5.23;;;18.50;38.70;;;;;;5005207;28;20456;-56
2022/03/25 11:43:19;;;;;;;5.57;5.13;;;18.50;38.70;;;;;;5009235;28;20481;-57
2022/03/25 11:46:02;;;;;;;5.43;4.97;;;18.50;38.70;;;;;;5008137;28;20562;-56
2022/03/25 11:48:27;;;;;;;4.73;4.33;;;18.50;38.70;;;;;;5010152;28;20415;-56
2022/03/25 11:50:57;;;;;;;5.43;5.13;;;18.50;38.80;;;;;;5010373;28;20986;-56
2022/03/25 11:53:25;;;;;;;5.53;5.13;;;18.50;38.80;;;;;;5009351;28;20231;-57
2022/03/25 11:55:59;;;;;;;5.73;5.33;;;18.50;38.80;;;;;;5008599;28;20451;-57
2022/03/25 11:58:25;;;;;;;5.90;5.60;;;18.50;39.60;;;;;;5006826;28;20792;-56
2022/03/25 12:00:54;;;;;;;5.97;5.57;;;18.50;38.80;;;;;;5009590;28;20432;-57
2022/03/25 12:03:20;;;;;;;6.33;5.90;;;18.50;38.90;;;;;;5010134;28;20422;-58
2022/03/25 12:06:00;;;;;;;5.87;5.47;;;18.50;38.80;;;;;;5010220;28;20442;-56
2022/03/25 12:08:35;;;;;;;5.40;5.00;;;18.50;38.80;;;;;;5010400;28;20243;-57
2022/03/25 12:11:11;;;;;;;5.27;4.87;;;18.50;38.80;;;;;;5009208;28;20469;-58
2022/03/25 12:13:57;;;;;;;5.80;5.40;;;18.50;38.80;;;;;;5009450;28;20850;-58
2022/03/25 12:16:44;;;;;;;5.50;5.10;;;18.50;38.80;;;;;;4993220;28;20925;-58
2022/03/25 12:19:28;;;;;;;5.40;5.00;;;18.50;38.80;;;;;;5007504;28;20416;-57
2022/03/25 12:21:59;;;;;;;4.93;4.63;;;18.60;38.90;;;;;;5009361;28;20995;-57
2022/03/25 12:24:26;;;;;;;5.60;5.20;;;18.60;38.80;;;;;;5008798;28;20451;-56
2022/03/25 12:26:57;;;;;;;5.53;5.23;;;18.60;38.80;;;;;;5008784;28;20499;-56
2022/03/25 12:29:31;;;;;;;5.53;5.03;;;18.60;38.80;;;;;;5006508;28;20440;-57
2022/03/25 12:32:00;;;;;;;5.87;5.43;;;18.60;38.70;;;;;;5005493;28;20944;-56
2022/03/25 12:34:40;;;;;;;5.63;5.33;;;18.60;38.70;;;;;;5005830;28;20430;-56
2022/03/25 12:37:10;;;;;;;5.07;4.77;;;18.60;38.70;;;;;;5006462;28;20447;-58
2022/03/25 12:39:36;;;;;;;5.53;5.13;;;18.60;39.50;;;;;;5007553;28;22309;-57
2022/03/25 12:42:10;;;;;;;4.83;4.53;;;18.60;38.70;;;;;;5008665;28;20511;-57
2022/03/25 12:44:36;;;;;;;4.77;4.47;;;18.60;38.80;;;;;;5007721;28;20314;-57
2022/03/25 12:47:03;;;;;;;4.90;4.60;;;18.60;38.70;;;;;;5009738;28;20946;-57
2022/03/25 12:49:29;;;;;;;4.60;4.40;;;18.60;39.60;;;;;;5006621;28;20704;-57
2022/03/25 12:52:03;;;;;;;5.30;5.00;;;18.60;38.80;;;;;;5009122;28;20813;-56
2022/03/25 12:54:31;;;;;;;5.07;4.77;;;18.60;38.80;;;;;;5008382;28;20426;-57